sensor_id;sensor_type;location;lat;lon;timestamp;P1;durP1;ratioP1;P2;durP2;ratioP2
24557;SDS011;12726;49.148;8.582;2023-03-24T00:00:36;2.72;;;1.50;;
24557;SDS011;12726;49.148;8.582;2023-03-24T00:03:22;3.97;;;2.25;;
24557;SDS011;12726;49.148;8.582;2023-03-24T00:06:08;4.18;;;1.85;;
24557;SDS011;12726;49.148;8.582;2023-03-24T00:08:56;4.30;;;2.08;;
24557;SDS011;12726;49.148;8.582;2023-03-24T00:11:44;2.53;;;1.60;;
24557;SDS011;12726;49.148;8.582;2023-03-24T00:14:29;2.33;;;1.60;;
24557;SDS011;12726;49.148;8.582;2023-03-24T00:17:15;3.15;;;1.85;;
24557;SDS011;12726;49.148;8.582;2023-03-24T00:20:01;2.47;;;1.75;;
24557;SDS011;12726;49.148;8.582;2023-03-24T00:22:52;2.42;;;2.00;;
24557;SDS011;12726;49.148;8.582;2023-03-24T00:25:41;3.70;;;2.08;;
24557;SDS011;12726;49.148;8.582;2023-03-24T00:28:29;2.13;;;1.92;;
24557;SDS011;12726;49.148;8.582;2023-03-24T00:31:16;4.35;;;2.03;;
24557;SDS011;12726;49.148;8.582;2023-03-24T00:34:02;2.72;;;1.80;;
24557;SDS011;12726;49.148;8.582;2023-03-24T00:36:49;3.38;;;1.80;;
24557;SDS011;12726;49.148;8.582;2023-03-24T00:39:35;4.20;;;1.95;;
24557;SDS011;12726;49.148;8.582;2023-03-24T00:42:21;5.65;;;1.90;;
24557;SDS011;12726;49.148;8.582;2023-03-24T00:45:09;2.88;;;1.90;;
24557;SDS011;12726;49.148;8.582;2023-03-24T00:47:54;3.30;;;1.70;;
24557;SDS011;12726;49.148;8.582;2023-03-24T00:50:43;2.88;;;1.85;;
24557;SDS011;12726;49.148;8.582;2023-03-24T00:53:29;3.05;;;1.88;;
24557;SDS011;12726;49.148;8.582;2023-03-24T00:56:15;1.88;;;1.50;;
24557;SDS011;12726;49.148;8.582;2023-03-24T00:59:00;3.42;;;1.85;;
24557;SDS011;12726;49.148;8.582;2023-03-24T01:01:47;2.25;;;1.95;;
24557;SDS011;12726;49.148;8.582;2023-03-24T01:04:32;2.50;;;1.98;;
24557;SDS011;12726;49.148;8.582;2023-03-24T01:07:19;2.95;;;2.10;;
24557;SDS011;12726;49.148;8.582;2023-03-24T01:10:04;2.25;;;1.80;;
24557;SDS011;12726;49.148;8.582;2023-03-24T01:12:51;5.40;;;2.45;;
24557;SDS011;12726;49.148;8.582;2023-03-24T01:15:37;3.38;;;1.60;;
24557;SDS011;12726;49.148;8.582;2023-03-24T01:18:24;3.25;;;2.22;;
24557;SDS011;12726;49.148;8.582;2023-03-24T01:21:10;2.33;;;1.83;;
24557;SDS011;12726;49.148;8.582;2023-03-24T01:23:57;2.85;;;1.52;;
24557;SDS011;12726;49.148;8.582;2023-03-24T01:26:42;4.40;;;1.92;;
24557;SDS011;12726;49.148;8.582;2023-03-24T01:29:28;2.45;;;1.55;;
24557;SDS011;12726;49.148;8.582;2023-03-24T01:32:13;2.42;;;1.80;;
24557;SDS011;12726;49.148;8.582;2023-03-24T01:35:00;2.63;;;1.85;;
24557;SDS011;12726;49.148;8.582;2023-03-24T01:37:46;3.50;;;1.65;;
24557;SDS011;12726;49.148;8.582;2023-03-24T01:40:32;2.42;;;1.80;;
24557;SDS011;12726;49.148;8.582;2023-03-24T01:43:20;2.35;;;1.67;;
24557;SDS011;12726;49.148;8.582;2023-03-24T01:46:11;3.60;;;1.88;;
24557;SDS011;12726;49.148;8.582;2023-03-24T01:49:00;2.90;;;1.70;;
24557;SDS011;12726;49.148;8.582;2023-03-24T01:51:49;2.20;;;1.75;;
24557;SDS011;12726;49.148;8.582;2023-03-24T01:54:39;3.55;;;1.75;;
24557;SDS011;12726;49.148;8.582;2023-03-24T01:57:27;2.58;;;1.77;;
24557;SDS011;12726;49.148;8.582;2023-03-24T02:00:16;1.95;;;1.50;;
24557;SDS011;12726;49.148;8.582;2023-03-24T02:03:05;3.22;;;1.90;;
24557;SDS011;12726;49.148;8.582;2023-03-24T02:05:53;2.35;;;1.75;;
24557;SDS011;12726;49.148;8.582;2023-03-24T02:08:44;2.95;;;1.67;;
24557;SDS011;12726;49.148;8.582;2023-03-24T02:11:36;4.32;;;2.00;;
24557;SDS011;12726;49.148;8.582;2023-03-24T02:14:22;3.55;;;1.80;;
24557;SDS011;12726;49.148;8.582;2023-03-24T02:17:19;1.80;;;1.60;;
24557;SDS011;12726;49.148;8.582;2023-03-24T02:26:58;1.85;;;1.40;;
24557;SDS011;12726;49.148;8.582;2023-03-24T02:30:01;2.58;;;1.90;;
24557;SDS011;12726;49.148;8.582;2023-03-24T02:33:12;3.72;;;1.80;;
24557;SDS011;12726;49.148;8.582;2023-03-24T02:36:35;3.47;;;1.60;;
24557;SDS011;12726;49.148;8.582;2023-03-24T02:39:55;2.15;;;1.60;;
24557;SDS011;12726;49.148;8.582;2023-03-24T02:42:53;4.63;;;1.80;;
24557;SDS011;12726;49.148;8.582;2023-03-24T02:45:48;2.85;;;1.88;;
24557;SDS011;12726;49.148;8.582;2023-03-24T02:48:54;2.17;;;1.77;;
24557;SDS011;12726;49.148;8.582;2023-03-24T02:51:52;3.35;;;2.10;;
24557;SDS011;12726;49.148;8.582;2023-03-24T02:54:45;1.77;;;1.35;;
24557;SDS011;12726;49.148;8.582;2023-03-24T02:57:38;4.13;;;1.80;;
24557;SDS011;12726;49.148;8.582;2023-03-24T03:00:28;6.07;;;2.10;;
24557;SDS011;12726;49.148;8.582;2023-03-24T03:03:17;1.65;;;1.50;;
24557;SDS011;12726;49.148;8.582;2023-03-24T03:06:08;2.28;;;1.90;;
24557;SDS011;12726;49.148;8.582;2023-03-24T03:09:02;2.30;;;1.70;;
24557;SDS011;12726;49.148;8.582;2023-03-24T03:11:53;2.20;;;1.60;;
24557;SDS011;12726;49.148;8.582;2023-03-24T03:14:44;2.50;;;1.73;;
24557;SDS011;12726;49.148;8.582;2023-03-24T03:17:34;3.50;;;1.83;;
24557;SDS011;12726;49.148;8.582;2023-03-24T03:20:22;2.78;;;1.60;;
24557;SDS011;12726;49.148;8.582;2023-03-24T03:23:13;3.08;;;1.73;;
24557;SDS011;12726;49.148;8.582;2023-03-24T03:26:02;2.20;;;1.50;;
24557;SDS011;12726;49.148;8.582;2023-03-24T03:28:53;3.05;;;1.63;;
24557;SDS011;12726;49.148;8.582;2023-03-24T03:31:45;1.80;;;1.58;;
24557;SDS011;12726;49.148;8.582;2023-03-24T03:34:36;2.42;;;1.73;;
24557;SDS011;12726;49.148;8.582;2023-03-24T03:37:29;2.92;;;1.60;;
24557;SDS011;12726;49.148;8.582;2023-03-24T03:40:30;2.53;;;1.55;;
24557;SDS011;12726;49.148;8.582;2023-03-24T03:43:18;2.63;;;1.67;;
24557;SDS011;12726;49.148;8.582;2023-03-24T03:46:04;3.20;;;1.80;;
24557;SDS011;12726;49.148;8.582;2023-03-24T03:48:51;2.53;;;1.98;;
24557;SDS011;12726;49.148;8.582;2023-03-24T03:51:37;2.58;;;1.77;;
24557;SDS011;12726;49.148;8.582;2023-03-24T03:54:24;2.05;;;1.63;;
24557;SDS011;12726;49.148;8.582;2023-03-24T03:57:13;3.30;;;1.73;;
24557;SDS011;12726;49.148;8.582;2023-03-24T03:59:59;2.97;;;1.77;;
24557;SDS011;12726;49.148;8.582;2023-03-24T04:02:59;2.33;;;1.75;;
24557;SDS011;12726;49.148;8.582;2023-03-24T04:06:09;2.53;;;1.95;;
24557;SDS011;12726;49.148;8.582;2023-03-24T04:09:11;2.58;;;1.80;;
24557;SDS011;12726;49.148;8.582;2023-03-24T04:12:10;3.50;;;1.70;;
24557;SDS011;12726;49.148;8.582;2023-03-24T04:15:22;2.63;;;1.77;;
24557;SDS011;12726;49.148;8.582;2023-03-24T04:21:45;2.75;;;2.08;;
24557;SDS011;12726;49.148;8.582;2023-03-24T04:24:42;3.47;;;1.80;;
24557;SDS011;12726;49.148;8.582;2023-03-24T04:27:35;3.60;;;1.95;;
24557;SDS011;12726;49.148;8.582;2023-03-24T04:30:24;3.15;;;2.40;;
24557;SDS011;12726;49.148;8.582;2023-03-24T04:33:16;3.53;;;2.22;;
24557;SDS011;12726;49.148;8.582;2023-03-24T04:36:08;4.53;;;2.60;;
24557;SDS011;12726;49.148;8.582;2023-03-24T04:39:05;4.13;;;3.13;;
24557;SDS011;12726;49.148;8.582;2023-03-24T04:41:50;4.82;;;3.05;;
24557;SDS011;12726;49.148;8.582;2023-03-24T04:44:36;5.05;;;3.60;;
24557;SDS011;12726;49.148;8.582;2023-03-24T04:47:24;5.43;;;3.85;;
24557;SDS011;12726;49.148;8.582;2023-03-24T04:50:16;4.63;;;3.15;;
24557;SDS011;12726;49.148;8.582;2023-03-24T04:53:13;8.30;;;4.00;;
24557;SDS011;12726;49.148;8.582;2023-03-24T04:56:01;10.77;;;4.43;;
24557;SDS011;12726;49.148;8.582;2023-03-24T04:58:52;4.30;;;3.70;;
24557;SDS011;12726;49.148;8.582;2023-03-24T05:01:37;6.45;;;3.85;;
24557;SDS011;12726;49.148;8.582;2023-03-24T05:04:32;6.63;;;3.60;;
24557;SDS011;12726;49.148;8.582;2023-03-24T05:07:19;5.38;;;3.45;;
24557;SDS011;12726;49.148;8.582;2023-03-24T05:10:05;7.78;;;4.28;;
24557;SDS011;12726;49.148;8.582;2023-03-24T05:12:53;7.80;;;4.20;;
24557;SDS011;12726;49.148;8.582;2023-03-24T05:15:38;6.70;;;4.60;;
24557;SDS011;12726;49.148;8.582;2023-03-24T05:18:23;6.53;;;4.72;;
24557;SDS011;12726;49.148;8.582;2023-03-24T05:21:09;10.25;;;5.07;;
24557;SDS011;12726;49.148;8.582;2023-03-24T05:23:56;9.77;;;5.85;;
24557;SDS011;12726;49.148;8.582;2023-03-24T05:26:41;8.52;;;5.30;;
24557;SDS011;12726;49.148;8.582;2023-03-24T05:29:28;6.53;;;5.20;;
24557;SDS011;12726;49.148;8.582;2023-03-24T05:32:13;6.35;;;5.13;;
24557;SDS011;12726;49.148;8.582;2023-03-24T05:34:59;8.50;;;5.80;;
24557;SDS011;12726;49.148;8.582;2023-03-24T05:37:44;7.68;;;5.60;;
24557;SDS011;12726;49.148;8.582;2023-03-24T05:40:30;10.57;;;6.43;;
24557;SDS011;12726;49.148;8.582;2023-03-24T05:43:15;8.32;;;6.05;;
24557;SDS011;12726;49.148;8.582;2023-03-24T05:46:01;9.10;;;6.57;;
24557;SDS011;12726;49.148;8.582;2023-03-24T05:48:47;8.30;;;6.70;;
24557;SDS011;12726;49.148;8.582;2023-03-24T05:51:32;9.85;;;7.45;;
24557;SDS011;12726;49.148;8.582;2023-03-24T05:54:17;9.48;;;6.20;;
24557;SDS011;12726;49.148;8.582;2023-03-24T05:57:03;10.30;;;5.95;;
24557;SDS011;12726;49.148;8.582;2023-03-24T05:59:50;9.95;;;5.60;;
24557;SDS011;12726;49.148;8.582;2023-03-24T06:02:37;8.85;;;5.55;;
24557;SDS011;12726;49.148;8.582;2023-03-24T06:05:23;10.68;;;5.40;;
24557;SDS011;12726;49.148;8.582;2023-03-24T06:08:08;6.38;;;4.97;;
24557;SDS011;12726;49.148;8.582;2023-03-24T06:10:57;6.88;;;4.68;;
24557;SDS011;12726;49.148;8.582;2023-03-24T06:13:43;9.48;;;5.32;;
24557;SDS011;12726;49.148;8.582;2023-03-24T06:16:28;8.85;;;5.28;;
24557;SDS011;12726;49.148;8.582;2023-03-24T06:19:17;7.13;;;4.22;;
24557;SDS011;12726;49.148;8.582;2023-03-24T06:22:04;7.85;;;4.55;;
24557;SDS011;12726;49.148;8.582;2023-03-24T06:24:50;5.60;;;4.63;;
24557;SDS011;12726;49.148;8.582;2023-03-24T06:27:36;5.40;;;4.25;;
24557;SDS011;12726;49.148;8.582;2023-03-24T06:30:25;6.97;;;4.65;;
24557;SDS011;12726;49.148;8.582;2023-03-24T06:33:10;10.57;;;6.50;;
24557;SDS011;12726;49.148;8.582;2023-03-24T06:35:57;5.78;;;4.53;;
24557;SDS011;12726;49.148;8.582;2023-03-24T06:38:44;4.57;;;4.00;;
24557;SDS011;12726;49.148;8.582;2023-03-24T06:41:29;6.78;;;4.30;;
24557;SDS011;12726;49.148;8.582;2023-03-24T06:44:15;7.68;;;4.88;;
24557;SDS011;12726;49.148;8.582;2023-03-24T06:47:00;9.05;;;4.80;;
24557;SDS011;12726;49.148;8.582;2023-03-24T06:49:47;6.82;;;4.70;;
24557;SDS011;12726;49.148;8.582;2023-03-24T06:52:34;6.25;;;4.85;;
24557;SDS011;12726;49.148;8.582;2023-03-24T06:55:20;5.35;;;4.18;;
24557;SDS011;12726;49.148;8.582;2023-03-24T06:58:05;6.65;;;4.72;;
24557;SDS011;12726;49.148;8.582;2023-03-24T07:00:51;6.07;;;4.05;;
24557;SDS011;12726;49.148;8.582;2023-03-24T07:03:36;6.43;;;3.70;;
24557;SDS011;12726;49.148;8.582;2023-03-24T07:06:21;6.45;;;4.07;;
24557;SDS011;12726;49.148;8.582;2023-03-24T07:09:08;4.57;;;3.60;;
24557;SDS011;12726;49.148;8.582;2023-03-24T07:11:55;7.68;;;3.92;;
24557;SDS011;12726;49.148;8.582;2023-03-24T07:14:40;4.43;;;3.72;;
24557;SDS011;12726;49.148;8.582;2023-03-24T07:17:25;4.68;;;3.63;;
24557;SDS011;12726;49.148;8.582;2023-03-24T07:20:11;3.83;;;3.45;;
24557;SDS011;12726;49.148;8.582;2023-03-24T07:22:56;5.07;;;3.42;;
24557;SDS011;12726;49.148;8.582;2023-03-24T07:25:44;3.72;;;3.10;;
24557;SDS011;12726;49.148;8.582;2023-03-24T07:28:29;7.05;;;3.50;;
24557;SDS011;12726;49.148;8.582;2023-03-24T07:31:15;4.38;;;3.25;;
24557;SDS011;12726;49.148;8.582;2023-03-24T07:34:00;6.78;;;3.83;;
24557;SDS011;12726;49.148;8.582;2023-03-24T07:36:45;4.53;;;3.50;;
24557;SDS011;12726;49.148;8.582;2023-03-24T07:39:30;5.10;;;3.63;;
24557;SDS011;12726;49.148;8.582;2023-03-24T07:42:17;4.43;;;3.55;;
24557;SDS011;12726;49.148;8.582;2023-03-24T07:45:03;4.88;;;4.03;;
24557;SDS011;12726;49.148;8.582;2023-03-24T07:47:49;4.10;;;3.15;;
24557;SDS011;12726;49.148;8.582;2023-03-24T07:50:34;6.78;;;3.28;;
24557;SDS011;12726;49.148;8.582;2023-03-24T07:53:20;5.85;;;3.35;;
24557;SDS011;12726;49.148;8.582;2023-03-24T07:56:05;4.03;;;3.25;;
24557;SDS011;12726;49.148;8.582;2023-03-24T07:58:52;4.32;;;3.50;;
24557;SDS011;12726;49.148;8.582;2023-03-24T08:01:38;6.40;;;2.97;;
24557;SDS011;12726;49.148;8.582;2023-03-24T08:04:23;6.07;;;2.90;;
24557;SDS011;12726;49.148;8.582;2023-03-24T08:07:09;4.18;;;3.45;;
24557;SDS011;12726;49.148;8.582;2023-03-24T08:09:56;4.22;;;3.20;;
24557;SDS011;12726;49.148;8.582;2023-03-24T08:12:42;8.00;;;3.70;;
24557;SDS011;12726;49.148;8.582;2023-03-24T08:15:29;4.13;;;3.13;;
24557;SDS011;12726;49.148;8.582;2023-03-24T08:18:14;3.80;;;3.03;;
24557;SDS011;12726;49.148;8.582;2023-03-24T08:21:00;4.88;;;2.90;;
24557;SDS011;12726;49.148;8.582;2023-03-24T08:23:45;4.32;;;2.78;;
24557;SDS011;12726;49.148;8.582;2023-03-24T08:26:30;4.00;;;2.47;;
24557;SDS011;12726;49.148;8.582;2023-03-24T08:29:20;2.58;;;2.30;;
24557;SDS011;12726;49.148;8.582;2023-03-24T08:32:06;3.65;;;2.10;;
24557;SDS011;12726;49.148;8.582;2023-03-24T08:34:52;2.28;;;2.08;;
24557;SDS011;12726;49.148;8.582;2023-03-24T08:37:38;3.38;;;2.08;;
24557;SDS011;12726;49.148;8.582;2023-03-24T08:40:24;4.28;;;2.35;;
24557;SDS011;12726;49.148;8.582;2023-03-24T08:43:13;2.20;;;1.65;;
24557;SDS011;12726;49.148;8.582;2023-03-24T08:46:00;3.83;;;2.30;;
24557;SDS011;12726;49.148;8.582;2023-03-24T08:48:47;2.30;;;1.75;;
24557;SDS011;12726;49.148;8.582;2023-03-24T08:51:33;4.55;;;1.80;;
24557;SDS011;12726;49.148;8.582;2023-03-24T08:54:19;2.47;;;2.00;;
24557;SDS011;12726;49.148;8.582;2023-03-24T08:57:06;2.95;;;2.00;;
24557;SDS011;12726;49.148;8.582;2023-03-24T08:59:52;1.90;;;1.40;;
24557;SDS011;12726;49.148;8.582;2023-03-24T09:02:37;3.70;;;1.48;;
24557;SDS011;12726;49.148;8.582;2023-03-24T09:05:24;2.97;;;1.67;;
24557;SDS011;12726;49.148;8.582;2023-03-24T09:08:10;1.67;;;1.40;;
24557;SDS011;12726;49.148;8.582;2023-03-24T09:10:56;2.42;;;1.67;;
24557;SDS011;12726;49.148;8.582;2023-03-24T09:13:42;2.67;;;1.90;;
24557;SDS011;12726;49.148;8.582;2023-03-24T09:16:27;2.30;;;1.80;;
24557;SDS011;12726;49.148;8.582;2023-03-24T09:19:13;2.08;;;1.50;;
24557;SDS011;12726;49.148;8.582;2023-03-24T09:21:59;2.20;;;1.67;;
24557;SDS011;12726;49.148;8.582;2023-03-24T09:24:45;2.38;;;1.90;;
24557;SDS011;12726;49.148;8.582;2023-03-24T09:27:31;2.40;;;1.42;;
24557;SDS011;12726;49.148;8.582;2023-03-24T09:30:17;1.77;;;1.27;;
24557;SDS011;12726;49.148;8.582;2023-03-24T09:33:02;1.77;;;1.50;;
24557;SDS011;12726;49.148;8.582;2023-03-24T09:35:52;2.00;;;1.48;;
24557;SDS011;12726;49.148;8.582;2023-03-24T09:38:39;2.40;;;1.50;;
24557;SDS011;12726;49.148;8.582;2023-03-24T09:41:25;2.55;;;1.38;;
24557;SDS011;12726;49.148;8.582;2023-03-24T09:44:15;3.60;;;2.00;;
24557;SDS011;12726;49.148;8.582;2023-03-24T09:47:10;1.90;;;1.70;;
24557;SDS011;12726;49.148;8.582;2023-03-24T09:50:00;4.25;;;2.83;;
24557;SDS011;12726;49.148;8.582;2023-03-24T09:52:50;2.75;;;2.00;;
24557;SDS011;12726;49.148;8.582;2023-03-24T09:55:40;3.78;;;2.00;;
24557;SDS011;12726;49.148;8.582;2023-03-24T09:58:28;2.38;;;1.92;;
24557;SDS011;12726;49.148;8.582;2023-03-24T10:01:16;4.20;;;2.20;;
24557;SDS011;12726;49.148;8.582;2023-03-24T10:04:02;2.30;;;1.73;;
24557;SDS011;12726;49.148;8.582;2023-03-24T10:06:50;2.80;;;2.00;;
24557;SDS011;12726;49.148;8.582;2023-03-24T10:09:42;2.80;;;1.67;;
24557;SDS011;12726;49.148;8.582;2023-03-24T10:12:35;2.20;;;1.98;;
24557;SDS011;12726;49.148;8.582;2023-03-24T10:15:25;2.75;;;2.03;;
24557;SDS011;12726;49.148;8.582;2023-03-24T10:18:19;2.40;;;1.60;;
24557;SDS011;12726;49.148;8.582;2023-03-24T10:21:14;2.75;;;1.90;;
24557;SDS011;12726;49.148;8.582;2023-03-24T10:24:04;2.95;;;1.83;;
24557;SDS011;12726;49.148;8.582;2023-03-24T10:26:55;2.58;;;1.90;;
24557;SDS011;12726;49.148;8.582;2023-03-24T10:29:49;2.85;;;1.80;;
24557;SDS011;12726;49.148;8.582;2023-03-24T10:32:38;1.63;;;1.52;;
24557;SDS011;12726;49.148;8.582;2023-03-24T10:35:27;2.78;;;1.90;;
24557;SDS011;12726;49.148;8.582;2023-03-24T10:38:16;2.58;;;1.90;;
24557;SDS011;12726;49.148;8.582;2023-03-24T10:41:03;3.50;;;1.92;;
24557;SDS011;12726;49.148;8.582;2023-03-24T10:43:49;4.00;;;2.28;;
24557;SDS011;12726;49.148;8.582;2023-03-24T10:46:39;4.07;;;2.35;;
24557;SDS011;12726;49.148;8.582;2023-03-24T10:49:30;2.38;;;2.17;;
24557;SDS011;12726;49.148;8.582;2023-03-24T10:52:16;3.55;;;1.98;;
24557;SDS011;12726;49.148;8.582;2023-03-24T10:55:03;2.95;;;2.10;;
24557;SDS011;12726;49.148;8.582;2023-03-24T10:57:51;3.53;;;2.15;;
24557;SDS011;12726;49.148;8.582;2023-03-24T11:00:42;4.38;;;2.63;;
24557;SDS011;12726;49.148;8.582;2023-03-24T11:03:30;5.05;;;3.25;;
24557;SDS011;12726;49.148;8.582;2023-03-24T11:06:19;4.47;;;2.95;;
24557;SDS011;12726;49.148;8.582;2023-03-24T11:09:09;6.40;;;2.65;;
24557;SDS011;12726;49.148;8.582;2023-03-24T11:12:02;3.85;;;2.35;;
24557;SDS011;12726;49.148;8.582;2023-03-24T11:14:48;3.63;;;2.75;;
24557;SDS011;12726;49.148;8.582;2023-03-24T11:17:33;3.22;;;2.67;;
24557;SDS011;12726;49.148;8.582;2023-03-24T11:20:21;3.63;;;2.45;;
24557;SDS011;12726;49.148;8.582;2023-03-24T11:23:13;4.75;;;2.17;;
24557;SDS011;12726;49.148;8.582;2023-03-24T11:26:08;5.30;;;2.05;;
24557;SDS011;12726;49.148;8.582;2023-03-24T11:28:59;5.10;;;2.25;;
24557;SDS011;12726;49.148;8.582;2023-03-24T11:31:49;4.03;;;1.77;;
24557;SDS011;12726;49.148;8.582;2023-03-24T11:34:37;3.42;;;2.00;;
24557;SDS011;12726;49.148;8.582;2023-03-24T11:37:31;6.30;;;1.80;;
24557;SDS011;12726;49.148;8.582;2023-03-24T11:40:20;2.92;;;1.90;;
24557;SDS011;12726;49.148;8.582;2023-03-24T11:43:13;2.00;;;1.80;;
24557;SDS011;12726;49.148;8.582;2023-03-24T11:46:06;5.22;;;1.60;;
24557;SDS011;12726;49.148;8.582;2023-03-24T11:48:57;3.85;;;1.55;;
24557;SDS011;12726;49.148;8.582;2023-03-24T11:51:46;3.78;;;1.00;;
24557;SDS011;12726;49.148;8.582;2023-03-24T11:54:36;6.05;;;0.85;;
24557;SDS011;12726;49.148;8.582;2023-03-24T11:57:25;1.38;;;0.80;;
24557;SDS011;12726;49.148;8.582;2023-03-24T12:00:24;3.47;;;0.90;;
24557;SDS011;12726;49.148;8.582;2023-03-24T12:06:46;2.25;;;0.88;;
24557;SDS011;12726;49.148;8.582;2023-03-24T12:09:42;3.40;;;0.95;;
24557;SDS011;12726;49.148;8.582;2023-03-24T12:12:37;2.58;;;0.80;;
24557;SDS011;12726;49.148;8.582;2023-03-24T12:15:36;4.45;;;0.95;;
24557;SDS011;12726;49.148;8.582;2023-03-24T12:18:40;1.27;;;0.70;;
24557;SDS011;12726;49.148;8.582;2023-03-24T12:21:36;3.92;;;0.80;;
24557;SDS011;12726;49.148;8.582;2023-03-24T12:24:37;4.88;;;1.30;;
24557;SDS011;12726;49.148;8.582;2023-03-24T12:27:41;2.20;;;0.73;;
24557;SDS011;12726;49.148;8.582;2023-03-24T12:30:36;4.35;;;0.73;;
24557;SDS011;12726;49.148;8.582;2023-03-24T12:33:34;2.53;;;0.90;;
24557;SDS011;12726;49.148;8.582;2023-03-24T12:36:30;3.38;;;0.98;;
24557;SDS011;12726;49.148;8.582;2023-03-24T12:39:27;2.42;;;0.82;;
24557;SDS011;12726;49.148;8.582;2023-03-24T12:42:16;3.33;;;0.90;;
24557;SDS011;12726;49.148;8.582;2023-03-24T12:45:07;5.05;;;0.98;;
24557;SDS011;12726;49.148;8.582;2023-03-24T12:48:07;4.70;;;1.17;;
24557;SDS011;12726;49.148;8.582;2023-03-24T12:51:18;3.90;;;1.13;;
24557;SDS011;12726;49.148;8.582;2023-03-24T12:54:17;3.13;;;1.10;;
24557;SDS011;12726;49.148;8.582;2023-03-24T12:57:09;6.20;;;1.15;;
24557;SDS011;12726;49.148;8.582;2023-03-24T12:59:59;3.15;;;1.33;;
24557;SDS011;12726;49.148;8.582;2023-03-24T13:02:50;3.30;;;0.88;;
24557;SDS011;12726;49.148;8.582;2023-03-24T13:05:39;2.55;;;1.20;;
24557;SDS011;12726;49.148;8.582;2023-03-24T13:08:29;3.40;;;1.20;;
24557;SDS011;12726;49.148;8.582;2023-03-24T13:11:14;3.67;;;1.20;;
24557;SDS011;12726;49.148;8.582;2023-03-24T13:14:10;6.22;;;1.20;;
24557;SDS011;12726;49.148;8.582;2023-03-24T13:17:02;4.05;;;1.00;;
24557;SDS011;12726;49.148;8.582;2023-03-24T13:19:50;1.95;;;1.08;;
24557;SDS011;12726;49.148;8.582;2023-03-24T13:22:36;6.78;;;1.38;;
24557;SDS011;12726;49.148;8.582;2023-03-24T13:25:26;2.63;;;1.00;;
24557;SDS011;12726;49.148;8.582;2023-03-24T13:28:18;5.38;;;1.33;;
24557;SDS011;12726;49.148;8.582;2023-03-24T13:31:08;3.92;;;1.02;;
24557;SDS011;12726;49.148;8.582;2023-03-24T13:33:56;3.92;;;1.05;;
24557;SDS011;12726;49.148;8.582;2023-03-24T13:36:45;6.25;;;1.33;;
24557;SDS011;12726;49.148;8.582;2023-03-24T13:39:33;4.00;;;1.00;;
24557;SDS011;12726;49.148;8.582;2023-03-24T13:42:28;5.72;;;1.08;;
24557;SDS011;12726;49.148;8.582;2023-03-24T13:48:30;4.35;;;1.25;;
24557;SDS011;12726;49.148;8.582;2023-03-24T13:51:23;5.70;;;1.20;;
24557;SDS011;12726;49.148;8.582;2023-03-24T13:54:12;2.55;;;0.80;;
24557;SDS011;12726;49.148;8.582;2023-03-24T13:57:02;4.55;;;1.20;;
24557;SDS011;12726;49.148;8.582;2023-03-24T14:03:11;2.53;;;1.38;;
24557;SDS011;12726;49.148;8.582;2023-03-24T14:05:58;8.23;;;1.23;;
24557;SDS011;12726;49.148;8.582;2023-03-24T14:08:59;3.92;;;1.05;;
24557;SDS011;12726;49.148;8.582;2023-03-24T14:11:49;2.40;;;1.00;;
24557;SDS011;12726;49.148;8.582;2023-03-24T14:18:13;5.07;;;1.27;;
24557;SDS011;12726;49.148;8.582;2023-03-24T14:21:01;2.30;;;0.90;;
24557;SDS011;12726;49.148;8.582;2023-03-24T14:23:48;5.28;;;1.50;;
24557;SDS011;12726;49.148;8.582;2023-03-24T14:26:36;2.55;;;0.88;;
24557;SDS011;12726;49.148;8.582;2023-03-24T14:29:32;4.25;;;1.42;;
24557;SDS011;12726;49.148;8.582;2023-03-24T14:32:21;4.47;;;1.10;;
24557;SDS011;12726;49.148;8.582;2023-03-24T14:35:17;6.47;;;1.77;;
24557;SDS011;12726;49.148;8.582;2023-03-24T14:38:17;3.53;;;0.98;;
24557;SDS011;12726;49.148;8.582;2023-03-24T14:41:06;3.95;;;0.90;;
24557;SDS011;12726;49.148;8.582;2023-03-24T14:43:58;7.70;;;1.23;;
24557;SDS011;12726;49.148;8.582;2023-03-24T14:46:46;4.88;;;0.90;;
24557;SDS011;12726;49.148;8.582;2023-03-24T14:49:33;1.70;;;0.88;;
24557;SDS011;12726;49.148;8.582;2023-03-24T14:52:20;1.80;;;0.93;;
24557;SDS011;12726;49.148;8.582;2023-03-24T14:55:09;3.40;;;1.10;;
24557;SDS011;12726;49.148;8.582;2023-03-24T14:58:00;5.10;;;1.60;;
24557;SDS011;12726;49.148;8.582;2023-03-24T15:00:50;2.40;;;0.73;;
24557;SDS011;12726;49.148;8.582;2023-03-24T15:03:41;6.30;;;1.08;;
24557;SDS011;12726;49.148;8.582;2023-03-24T15:06:41;5.53;;;1.10;;
24557;SDS011;12726;49.148;8.582;2023-03-24T15:09:29;5.10;;;1.25;;
24557;SDS011;12726;49.148;8.582;2023-03-24T15:12:14;4.03;;;1.00;;
24557;SDS011;12726;49.148;8.582;2023-03-24T15:15:00;4.55;;;1.40;;
24557;SDS011;12726;49.148;8.582;2023-03-24T15:17:47;2.78;;;0.95;;
24557;SDS011;12726;49.148;8.582;2023-03-24T15:20:34;4.53;;;1.27;;
24557;SDS011;12726;49.148;8.582;2023-03-24T15:23:22;1.92;;;0.95;;
24557;SDS011;12726;49.148;8.582;2023-03-24T15:26:11;2.25;;;0.93;;
24557;SDS011;12726;49.148;8.582;2023-03-24T15:28:58;4.25;;;1.33;;
24557;SDS011;12726;49.148;8.582;2023-03-24T15:31:44;1.15;;;0.75;;
24557;SDS011;12726;49.148;8.582;2023-03-24T15:34:33;1.23;;;0.70;;
24557;SDS011;12726;49.148;8.582;2023-03-24T15:37:22;3.10;;;1.00;;
24557;SDS011;12726;49.148;8.582;2023-03-24T15:43:16;2.80;;;0.95;;
24557;SDS011;12726;49.148;8.582;2023-03-24T15:46:03;1.20;;;0.80;;
24557;SDS011;12726;49.148;8.582;2023-03-24T15:48:50;1.80;;;0.82;;
24557;SDS011;12726;49.148;8.582;2023-03-24T15:51:46;2.22;;;0.77;;
24557;SDS011;12726;49.148;8.582;2023-03-24T15:54:35;1.95;;;1.05;;
24557;SDS011;12726;49.148;8.582;2023-03-24T15:57:23;1.40;;;1.00;;
24557;SDS011;12726;49.148;8.582;2023-03-24T16:00:11;1.65;;;0.80;;
24557;SDS011;12726;49.148;8.582;2023-03-24T16:02:59;1.45;;;0.82;;
24557;SDS011;12726;49.148;8.582;2023-03-24T16:05:47;1.35;;;0.80;;
24557;SDS011;12726;49.148;8.582;2023-03-24T16:08:35;1.55;;;0.90;;
24557;SDS011;12726;49.148;8.582;2023-03-24T16:11:23;2.30;;;1.10;;
24557;SDS011;12726;49.148;8.582;2023-03-24T16:14:13;1.83;;;0.93;;
24557;SDS011;12726;49.148;8.582;2023-03-24T16:17:04;2.17;;;1.20;;
24557;SDS011;12726;49.148;8.582;2023-03-24T16:19:49;2.85;;;1.13;;
24557;SDS011;12726;49.148;8.582;2023-03-24T16:22:35;2.08;;;1.10;;
24557;SDS011;12726;49.148;8.582;2023-03-24T16:25:21;1.42;;;0.90;;
24557;SDS011;12726;49.148;8.582;2023-03-24T16:28:08;2.10;;;1.00;;
24557;SDS011;12726;49.148;8.582;2023-03-24T16:30:57;3.03;;;0.95;;
24557;SDS011;12726;49.148;8.582;2023-03-24T16:33:45;2.17;;;0.75;;
24557;SDS011;12726;49.148;8.582;2023-03-24T16:36:30;1.75;;;1.00;;
24557;SDS011;12726;49.148;8.582;2023-03-24T16:39:16;1.27;;;0.90;;
24557;SDS011;12726;49.148;8.582;2023-03-24T16:42:04;4.30;;;1.00;;
24557;SDS011;12726;49.148;8.582;2023-03-24T16:44:49;3.00;;;0.90;;
24557;SDS011;12726;49.148;8.582;2023-03-24T16:47:35;1.38;;;0.77;;
24557;SDS011;12726;49.148;8.582;2023-03-24T16:50:22;2.08;;;0.90;;
24557;SDS011;12726;49.148;8.582;2023-03-24T16:53:11;0.95;;;0.63;;
24557;SDS011;12726;49.148;8.582;2023-03-24T16:55:56;1.58;;;0.60;;
24557;SDS011;12726;49.148;8.582;2023-03-24T16:58:42;1.52;;;1.10;;
24557;SDS011;12726;49.148;8.582;2023-03-24T17:01:28;2.58;;;0.95;;
24557;SDS011;12726;49.148;8.582;2023-03-24T17:04:16;1.95;;;0.90;;
24557;SDS011;12726;49.148;8.582;2023-03-24T17:07:03;2.88;;;0.95;;
24557;SDS011;12726;49.148;8.582;2023-03-24T17:09:49;1.13;;;0.90;;
24557;SDS011;12726;49.148;8.582;2023-03-24T17:12:34;2.03;;;0.77;;
24557;SDS011;12726;49.148;8.582;2023-03-24T17:15:22;3.00;;;0.80;;
24557;SDS011;12726;49.148;8.582;2023-03-24T17:18:09;1.67;;;0.75;;
24557;SDS011;12726;49.148;8.582;2023-03-24T17:20:55;1.63;;;0.90;;
24557;SDS011;12726;49.148;8.582;2023-03-24T17:23:41;1.40;;;0.80;;
24557;SDS011;12726;49.148;8.582;2023-03-24T17:26:27;1.65;;;0.85;;